createdAt,value
2018-06-27T00:02:15.331Z,16.10
2018-06-27T00:06:18.663Z,14.43
2018-06-27T00:10:22.003Z,15.67
2018-06-27T00:14:25.344Z,14.77
2018-06-27T00:18:28.692Z,16.40
2018-06-27T00:22:32.036Z,13.53
2018-06-27T00:26:35.377Z,10.73
2018-06-27T00:30:38.712Z,10.80
2018-06-27T00:34:42.036Z,13.60
2018-06-27T00:38:45.367Z,15.17
2018-06-27T00:42:48.704Z,11.10
2018-06-27T00:46:52.056Z,14.93
2018-06-27T00:50:56.027Z,14.87
2018-06-27T00:54:59.344Z,10.93
2018-06-27T00:59:03.052Z,13.00
2018-06-27T01:03:06.391Z,19.00
2018-06-27T01:07:09.710Z,17.40
2018-06-27T01:11:13.073Z,20.03
2018-06-27T01:15:16.416Z,18.30
2018-06-27T01:19:19.763Z,18.00
2018-06-27T01:23:23.108Z,18.23
2018-06-27T01:27:26.469Z,17.20
2018-06-27T01:31:29.846Z,16.23
2018-06-27T01:35:33.191Z,16.10
2018-06-27T01:39:36.503Z,14.57
2018-06-27T01:43:39.922Z,14.67
2018-06-27T01:47:43.255Z,15.20
2018-06-27T01:51:46.667Z,15.20
2018-06-27T01:55:49.987Z,14.53
2018-06-27T01:59:53.994Z,14.70
2018-06-27T02:03:57.343Z,15.77
2018-06-27T02:08:00.671Z,16.00
2018-06-27T02:12:04.048Z,17.23
2018-06-27T02:16:07.407Z,16.10
2018-06-27T02:20:10.784Z,15.70
2018-06-27T02:24:14.139Z,15.73
2018-06-27T02:28:17.458Z,16.17
2018-06-27T02:32:20.796Z,13.30
2018-06-27T02:36:24.966Z,15.07
2018-06-27T02:40:28.307Z,13.23
2018-06-27T02:44:31.650Z,14.07
2018-06-27T02:48:34.976Z,16.70
2018-06-27T02:52:38.320Z,18.07
2018-06-27T02:56:41.666Z,16.83
2018-06-27T03:00:44.975Z,16.33
2018-06-27T03:04:48.299Z,15.07
2018-06-27T03:08:51.628Z,14.37
2018-06-27T03:12:54.951Z,14.77
2018-06-27T03:16:58.315Z,13.83
2018-06-27T03:21:01.655Z,14.07
2018-06-27T03:25:04.990Z,14.87
2018-06-27T03:29:08.326Z,16.53
2018-06-27T03:33:11.703Z,15.17
2018-06-27T03:37:15.087Z,15.23
2018-06-27T03:41:18.514Z,14.77
2018-06-27T03:45:21.851Z,15.57
2018-06-27T03:49:25.179Z,15.73
2018-06-27T03:53:38.683Z,16.73
2018-06-27T03:57:42.603Z,19.63
2018-06-27T04:01:46.000Z,19.03
2018-06-27T04:05:49.327Z,19.70
2018-06-27T04:09:53.330Z,18.97
2018-06-27T04:13:56.664Z,19.43
2018-06-27T04:18:00.120Z,19.37
2018-06-27T04:22:03.462Z,19.17
2018-06-27T04:26:06.823Z,18.93
2018-06-27T04:30:10.147Z,19.27
2018-06-27T04:34:13.965Z,20.33
2018-06-27T04:38:18.296Z,21.47
2018-06-27T04:42:21.653Z,21.33
2018-06-27T04:46:25.004Z,22.13
2018-06-27T04:50:28.388Z,24.13
2018-06-27T04:54:31.731Z,23.43
2018-06-27T04:58:35.059Z,23.80
2018-06-27T05:02:38.379Z,25.33
2018-06-27T05:06:41.721Z,25.40
2018-06-27T05:10:45.059Z,24.90
2018-06-27T05:14:48.386Z,24.43
2018-06-27T05:18:51.719Z,25.80
2018-06-27T05:22:55.119Z,24.07
2018-06-27T05:26:58.438Z,23.63
2018-06-27T05:31:01.776Z,24.40
2018-06-27T05:35:05.158Z,25.07
2018-06-27T05:39:10.077Z,25.17
2018-06-27T05:43:13.401Z,23.97
2018-06-27T05:47:16.726Z,25.53
2018-06-27T05:51:20.179Z,25.27
2018-06-27T05:55:23.519Z,24.07
2018-06-27T05:59:26.855Z,24.03
2018-06-27T06:03:30.229Z,23.90
2018-06-27T06:07:33.551Z,22.93
2018-06-27T06:11:37.205Z,24.13
2018-06-27T06:15:40.572Z,24.53
2018-06-27T06:19:43.934Z,22.93
2018-06-27T06:23:47.276Z,24.10
2018-06-27T06:27:50.596Z,24.10
2018-06-27T06:31:54.003Z,23.60
2018-06-27T06:35:57.363Z,25.47
2018-06-27T06:40:00.697Z,24.33
2018-06-27T06:44:04.247Z,26.67
2018-06-27T06:48:07.570Z,25.90
2018-06-27T06:52:10.931Z,26.97
2018-06-27T06:56:14.255Z,24.70
2018-06-27T07:00:17.640Z,24.20
2018-06-27T07:04:20.988Z,25.03
2018-06-27T07:08:24.322Z,25.23
2018-06-27T07:12:27.664Z,25.77
2018-06-27T07:16:31.099Z,24.23
2018-06-27T07:20:34.458Z,26.13
2018-06-27T07:24:37.786Z,24.13
2018-06-27T07:28:41.174Z,24.77
2018-06-27T07:32:44.431Z,23.90
2018-06-27T07:36:47.784Z,22.63
2018-06-27T07:40:51.138Z,22.23
2018-06-27T07:44:54.480Z,23.30
2018-06-27T07:48:58.014Z,20.37
2018-06-27T07:53:01.361Z,19.93
2018-06-27T07:57:04.692Z,18.40
2018-06-27T08:01:08.032Z,17.30
2018-06-27T08:05:11.392Z,17.80
2018-06-27T08:09:14.759Z,17.50
2018-06-27T08:13:18.084Z,17.90
2018-06-27T08:17:21.420Z,18.57
2018-06-27T08:21:24.838Z,18.07
2018-06-27T08:25:28.207Z,17.30
2018-06-27T08:29:31.524Z,16.43
2018-06-27T08:33:34.911Z,13.43
2018-06-27T08:37:38.246Z,15.10
2018-06-27T08:41:41.675Z,13.43
2018-06-27T08:45:45.007Z,12.03
2018-06-27T08:49:48.242Z,11.63
2018-06-27T08:53:51.612Z,11.83
2018-06-27T08:57:54.970Z,10.70
2018-06-27T09:01:58.315Z,11.07
2018-06-27T09:06:01.643Z,9.50
2018-06-27T09:10:04.996Z,9.57
2018-06-27T09:14:08.327Z,9.97
2018-06-27T09:18:11.664Z,9.30
2018-06-27T09:22:15.037Z,7.67
2018-06-27T09:26:18.391Z,8.47
2018-06-27T09:30:21.719Z,7.23
2018-06-27T09:34:25.034Z,3.67
2018-06-27T09:38:28.360Z,4.33
2018-06-27T09:42:31.696Z,3.40
2018-06-27T09:46:35.559Z,3.80
2018-06-27T09:50:38.863Z,2.23
2018-06-27T09:54:42.336Z,2.37
2018-06-27T09:58:45.663Z,2.37
2018-06-27T10:02:48.992Z,2.80
2018-06-27T10:06:52.303Z,3.00
2018-06-27T10:10:55.615Z,3.40
2018-06-27T10:14:58.911Z,3.20
2018-06-27T10:19:02.279Z,3.33
2018-06-27T10:23:05.776Z,3.10
2018-06-27T10:27:09.110Z,2.77
2018-06-27T10:31:12.475Z,3.17
2018-06-27T10:35:15.776Z,2.70
2018-06-27T10:39:19.107Z,2.80
2018-06-27T10:43:22.432Z,3.57
2018-06-27T10:47:25.758Z,2.90
2018-06-27T10:51:29.201Z,2.57
2018-06-27T10:55:32.502Z,2.80
2018-06-27T10:59:35.832Z,2.40
2018-06-27T11:03:39.171Z,2.47
2018-06-27T11:07:42.715Z,2.70
2018-06-27T11:11:46.119Z,2.60
2018-06-27T11:15:49.427Z,2.10
2018-06-27T11:19:52.756Z,2.30
2018-06-27T11:23:56.101Z,2.50
2018-06-27T11:27:59.425Z,2.10
2018-06-27T11:32:02.748Z,2.50
2018-06-27T11:36:06.052Z,2.67
2018-06-27T11:40:09.395Z,2.20
2018-06-27T11:44:12.723Z,2.23
2018-06-27T11:48:16.063Z,2.10
2018-06-27T11:52:19.401Z,2.00
2018-06-27T11:56:22.730Z,2.23
2018-06-27T12:00:26.079Z,2.10
2018-06-27T12:04:29.434Z,2.00
2018-06-27T12:08:32.764Z,1.80
2018-06-27T12:12:36.124Z,1.77
2018-06-27T12:16:39.440Z,1.70
2018-06-27T12:20:42.794Z,1.67
2018-06-27T12:24:46.157Z,1.57
2018-06-27T12:28:49.487Z,1.60
2018-06-27T12:32:53.040Z,1.30
2018-06-27T12:37:03.283Z,1.33
2018-06-27T12:41:06.603Z,1.20
2018-06-27T12:45:10.750Z,1.30
2018-06-27T12:49:14.864Z,1.20
2018-06-27T12:53:18.202Z,1.03
2018-06-27T12:57:21.522Z,1.03
2018-06-27T13:01:25.084Z,1.07
2018-06-27T13:05:28.460Z,1.13
2018-06-27T13:09:31.794Z,1.10
2018-06-27T13:13:35.115Z,3.60
2018-06-27T13:17:38.446Z,0.80
2018-06-27T13:21:41.829Z,1.10
2018-06-27T13:25:45.175Z,0.93
2018-06-27T13:29:48.240Z,1.00
2018-06-27T13:33:51.751Z,1.03
2018-06-27T13:37:55.071Z,1.30
2018-06-27T13:41:58.418Z,1.30
2018-06-27T13:46:01.810Z,1.00
2018-06-27T13:50:05.231Z,2.00
2018-06-27T13:54:08.602Z,1.10
2018-06-27T13:58:11.907Z,1.43
2018-06-27T14:02:15.235Z,8.13
2018-06-27T14:06:18.725Z,1.13
2018-06-27T14:10:22.057Z,1.17
2018-06-27T14:14:25.377Z,1.40
2018-06-27T14:18:28.719Z,1.37
2018-06-27T14:22:32.082Z,1.50
2018-06-27T14:26:35.417Z,1.60
2018-06-27T14:30:38.751Z,1.30
2018-06-27T14:34:42.153Z,1.20
2018-06-27T14:38:45.738Z,1.13
2018-06-27T14:42:49.118Z,1.10
2018-06-27T14:46:52.472Z,1.17
2018-06-27T14:50:55.803Z,1.20
2018-06-27T14:54:59.136Z,1.27
2018-06-27T14:59:02.519Z,1.23
2018-06-27T15:03:05.884Z,1.40
2018-06-27T15:07:09.496Z,1.13
2018-06-27T15:11:13.124Z,1.20
2018-06-27T15:15:16.456Z,1.37
2018-06-27T15:19:19.807Z,1.20
2018-06-27T15:23:23.137Z,1.25
2018-06-27T15:27:26.458Z,1.10
2018-06-27T15:31:29.800Z,1.20
2018-06-27T15:35:33.124Z,1.10
2018-06-27T15:39:36.525Z,1.00
2018-06-27T15:43:39.851Z,1.20
2018-06-27T15:47:43.195Z,1.60
2018-06-27T15:51:46.618Z,1.30
2018-06-27T15:55:49.952Z,1.53
2018-06-27T15:59:54.557Z,1.60
2018-06-27T16:03:57.934Z,1.40
2018-06-27T16:08:01.242Z,1.50
2018-06-27T16:12:05.075Z,1.60
2018-06-27T16:16:08.786Z,1.30
2018-06-27T16:20:12.146Z,1.40
2018-06-27T16:24:15.504Z,1.00
2018-06-27T16:28:19.171Z,1.37
2018-06-27T16:32:23.324Z,1.60
2018-06-27T16:36:26.648Z,1.40
2018-06-27T16:40:29.983Z,1.32
2018-06-27T16:44:33.323Z,1.17
2018-06-27T16:48:36.635Z,1.63
2018-06-27T16:52:39.992Z,1.43
2018-06-27T16:56:43.369Z,1.20
2018-06-27T17:00:46.717Z,1.30
2018-06-27T17:04:50.039Z,1.23
2018-06-27T17:08:53.387Z,1.33
2018-06-27T17:12:56.790Z,1.30
2018-06-27T17:17:00.097Z,1.20
2018-06-27T17:21:03.482Z,1.50
2018-06-27T17:25:06.867Z,1.17
2018-06-27T17:29:10.229Z,1.50
2018-06-27T17:33:13.572Z,1.50
2018-06-27T17:37:16.902Z,1.23
2018-06-27T17:41:20.240Z,1.47
2018-06-27T17:45:23.543Z,1.27
2018-06-27T17:49:26.895Z,1.33
2018-06-27T17:53:30.244Z,1.47
2018-06-27T17:57:33.658Z,1.30
2018-06-27T18:01:37.146Z,1.07
2018-06-27T18:05:40.471Z,1.30
2018-06-27T18:09:43.803Z,1.27
2018-06-27T18:13:47.143Z,1.43
2018-06-27T18:17:50.470Z,1.33
2018-06-27T18:21:53.919Z,1.17
2018-06-27T18:25:57.224Z,1.50
2018-06-27T18:30:00.686Z,1.20
2018-06-27T18:34:04.053Z,1.37
2018-06-27T18:38:07.564Z,1.47
2018-06-27T18:42:10.939Z,1.50
2018-06-27T18:46:14.459Z,1.30
2018-06-27T18:50:17.783Z,1.23
2018-06-27T18:54:21.116Z,1.20
2018-06-27T18:58:24.460Z,1.40
2018-06-27T19:02:27.808Z,1.50
2018-06-27T19:06:31.172Z,1.50
2018-06-27T19:10:34.506Z,1.30
2018-06-27T19:14:37.835Z,1.37
2018-06-27T19:18:41.158Z,1.10
2018-06-27T19:22:44.516Z,1.50
2018-06-27T19:26:47.847Z,1.30
2018-06-27T19:30:51.181Z,1.40
2018-06-27T19:34:54.498Z,1.60
2018-06-27T19:38:57.984Z,1.80
2018-06-27T19:43:01.319Z,1.33
2018-06-27T19:47:04.748Z,1.57
2018-06-27T19:51:08.007Z,1.27
2018-06-27T19:55:11.379Z,1.27
2018-06-27T19:59:14.743Z,1.50
2018-06-27T20:03:18.056Z,1.50
2018-06-27T20:07:21.429Z,1.50
2018-06-27T20:11:24.891Z,1.53
2018-06-27T20:15:28.225Z,1.40
2018-06-27T20:19:31.563Z,1.30
2018-06-27T20:23:34.903Z,1.43
2018-06-27T20:27:38.195Z,1.23
2018-06-27T20:31:41.588Z,1.40
2018-06-27T20:35:44.951Z,1.40
2018-06-27T20:39:48.287Z,2.00
2018-06-27T20:43:51.996Z,1.33
2018-06-27T20:47:56.152Z,1.30
2018-06-27T20:51:59.482Z,1.47
2018-06-27T20:56:02.839Z,1.80
2018-06-27T21:00:07.077Z,1.43
2018-06-27T21:04:10.412Z,1.50
2018-06-27T21:08:13.766Z,1.43
2018-06-27T21:12:17.107Z,1.80
2018-06-27T21:16:20.464Z,1.27
2018-06-27T21:20:24.315Z,1.30
2018-06-27T21:24:32.970Z,1.60
2018-06-27T21:28:36.483Z,1.40
2018-06-27T21:32:39.838Z,1.20
2018-06-27T21:36:42.943Z,1.60
2018-06-27T21:40:46.296Z,1.60
2018-06-27T21:44:49.643Z,1.40
2018-06-27T21:48:52.990Z,1.27
2018-06-27T21:52:56.323Z,1.63
2018-06-27T21:56:59.690Z,1.40
2018-06-27T22:01:03.074Z,1.53
2018-06-27T22:05:07.492Z,1.23
2018-06-27T22:09:35.281Z,1.53
2018-06-27T22:13:38.891Z,1.50
2018-06-27T22:17:42.239Z,1.70
2018-06-27T22:21:45.642Z,1.70
2018-06-27T22:25:48.982Z,1.50
2018-06-27T22:29:52.330Z,1.80
2018-06-27T22:33:55.871Z,1.93
2018-06-27T22:37:59.230Z,1.70
2018-06-27T22:42:02.635Z,1.63
2018-06-27T22:46:06.039Z,1.83
2018-06-27T22:50:09.384Z,1.33
2018-06-27T22:54:12.727Z,1.60
2018-06-27T22:58:16.087Z,1.70
2018-06-27T23:02:19.467Z,1.50
2018-06-27T23:06:22.799Z,1.80
2018-06-27T23:10:26.220Z,1.60
2018-06-27T23:14:29.584Z,1.80
2018-06-27T23:18:32.923Z,1.83
2018-06-27T23:22:42.501Z,1.70
2018-06-27T23:26:45.587Z,1.70
2018-06-27T23:30:48.955Z,1.60
2018-06-27T23:34:53.238Z,2.00
2018-06-27T23:38:56.578Z,1.70
2018-06-27T23:42:59.948Z,1.83
2018-06-27T23:47:03.415Z,1.87
2018-06-27T23:51:06.792Z,1.70
2018-06-27T23:55:10.164Z,1.73
2018-06-27T23:59:13.492Z,1.90
